createdAt,value
2022-10-03T00:00:13.460Z,9.26
2022-10-03T00:01:13.493Z,9.31
2022-10-03T00:02:13.605Z,9.28
2022-10-03T00:03:13.617Z,9.23
2022-10-03T00:04:13.506Z,9.29
2022-10-03T00:05:13.520Z,9.29
2022-10-03T00:06:13.594Z,9.29
2022-10-03T00:07:13.552Z,9.24
2022-10-03T00:08:13.552Z,9.21
2022-10-03T00:09:13.567Z,9.35
2022-10-03T00:10:13.574Z,9.23
2022-10-03T00:11:13.596Z,9.32
2022-10-03T00:12:13.599Z,9.29
2022-10-03T00:13:13.608Z,9.33
2022-10-03T00:14:13.644Z,9.33
2022-10-03T00:15:13.629Z,9.33
2022-10-03T00:16:13.704Z,9.29
2022-10-03T00:17:13.651Z,9.35
2022-10-03T00:18:13.662Z,9.36
2022-10-03T00:19:13.682Z,9.32
2022-10-03T00:20:13.690Z,9.36
2022-10-03T00:21:13.702Z,9.38
2022-10-03T00:22:13.717Z,9.40
2022-10-03T00:23:13.724Z,9.35
2022-10-03T00:24:13.732Z,9.46
2022-10-03T00:25:13.748Z,9.38
2022-10-03T00:26:13.756Z,9.35
2022-10-03T00:27:13.769Z,9.43
2022-10-03T00:28:13.925Z,9.46
2022-10-03T00:29:13.789Z,9.53
2022-10-03T00:30:13.825Z,9.46
2022-10-03T00:31:13.901Z,9.51
2022-10-03T00:32:13.824Z,9.48
2022-10-03T00:33:13.833Z,9.42
2022-10-03T00:34:13.848Z,9.46
2022-10-03T00:35:13.862Z,9.50
2022-10-03T00:36:13.902Z,9.46
2022-10-03T00:37:13.883Z,9.39
2022-10-03T00:38:13.896Z,9.43
2022-10-03T00:39:13.913Z,9.39
2022-10-03T00:40:13.918Z,9.39
2022-10-03T00:41:13.929Z,9.31
2022-10-03T00:42:13.941Z,9.33
2022-10-03T00:43:13.955Z,9.38
2022-10-03T00:44:13.976Z,9.39
2022-10-03T00:45:13.989Z,9.36
2022-10-03T00:46:14.077Z,9.35
2022-10-03T00:47:13.999Z,9.36
2022-10-03T00:48:14.011Z,9.42
2022-10-03T00:49:14.021Z,9.33
2022-10-03T00:50:14.032Z,9.32
2022-10-03T00:51:14.043Z,9.24
2022-10-03T00:52:14.057Z,9.23
2022-10-03T00:53:14.068Z,9.23
2022-10-03T00:54:14.079Z,9.26
2022-10-03T00:55:14.139Z,9.18
2022-10-03T00:56:14.103Z,9.21
2022-10-03T00:57:14.113Z,9.17
2022-10-03T00:58:14.122Z,9.23
2022-10-03T00:59:14.135Z,9.20
2022-10-03T01:00:14.158Z,9.23
2022-10-03T01:01:14.215Z,9.26
2022-10-03T01:02:14.242Z,9.15
2022-10-03T01:03:14.184Z,9.15
2022-10-03T01:04:14.193Z,9.17
2022-10-03T01:05:14.203Z,9.14
2022-10-03T01:06:14.219Z,9.14
2022-10-03T01:07:14.227Z,9.17
2022-10-03T01:08:14.242Z,9.14
2022-10-03T01:09:14.253Z,9.15
2022-10-03T01:10:14.268Z,9.14
2022-10-03T01:11:14.289Z,9.23
2022-10-03T01:12:14.289Z,9.21
2022-10-03T01:13:14.293Z,9.18
2022-10-03T01:14:14.313Z,9.15
2022-10-03T01:15:14.319Z,9.15
2022-10-03T01:16:14.361Z,9.05
2022-10-03T01:17:14.342Z,9.14
2022-10-03T01:18:14.380Z,9.13
2022-10-03T01:19:14.368Z,9.17
2022-10-03T01:20:14.381Z,9.18
2022-10-03T01:21:14.388Z,9.15
2022-10-03T01:22:14.396Z,9.14
2022-10-03T01:23:14.409Z,9.13
2022-10-03T01:24:14.422Z,9.10
2022-10-03T01:25:14.433Z,9.13
2022-10-03T01:26:14.443Z,9.05
2022-10-03T01:27:14.460Z,9.14
2022-10-03T01:28:14.561Z,9.04
2022-10-03T01:29:14.479Z,9.15
2022-10-03T01:30:14.493Z,9.11
2022-10-03T01:31:14.542Z,9.17
2022-10-03T01:32:14.511Z,9.14
2022-10-03T01:33:14.525Z,9.13
2022-10-03T01:34:14.628Z,9.17
2022-10-03T01:35:14.548Z,9.14
2022-10-03T01:36:14.569Z,9.13
2022-10-03T01:37:14.572Z,9.15
2022-10-03T01:38:14.589Z,9.11
2022-10-03T01:39:14.694Z,9.11
2022-10-03T01:40:14.602Z,9.14
2022-10-03T01:41:14.617Z,9.02
2022-10-03T01:42:14.628Z,8.96
2022-10-03T01:43:14.636Z,8.99
2022-10-03T01:44:14.662Z,8.98
2022-10-03T01:45:14.674Z,8.96
2022-10-03T01:46:14.777Z,8.91
2022-10-03T01:47:14.687Z,8.83
2022-10-03T01:48:14.695Z,8.87
2022-10-03T01:49:14.708Z,8.87
2022-10-03T01:50:14.742Z,8.76
2022-10-03T01:51:14.738Z,8.80
2022-10-03T01:52:14.745Z,8.81
2022-10-03T01:53:14.754Z,8.81
2022-10-03T01:54:14.866Z,8.81
2022-10-03T01:55:14.777Z,8.80
2022-10-03T01:56:14.797Z,8.74
2022-10-03T01:57:14.799Z,8.81
2022-10-03T01:58:14.811Z,8.86
2022-10-03T01:59:14.832Z,8.91
2022-10-03T02:00:14.834Z,8.91
2022-10-03T02:01:14.978Z,8.94
2022-10-03T02:02:14.883Z,8.96
2022-10-03T02:03:14.871Z,8.95
2022-10-03T02:04:14.887Z,8.99
2022-10-03T02:05:14.895Z,9.10
2022-10-03T02:06:14.927Z,9.05
2022-10-03T02:07:14.912Z,9.04
2022-10-03T02:08:14.926Z,8.99
2022-10-03T02:09:14.936Z,8.87
2022-10-03T02:10:14.949Z,9.05
2022-10-03T02:11:14.959Z,9.01
2022-10-03T02:12:14.970Z,9.02
2022-10-03T02:13:14.989Z,9.04
2022-10-03T02:14:15.064Z,8.99
2022-10-03T02:15:15.012Z,8.96
2022-10-03T02:16:15.096Z,8.98
2022-10-03T02:17:15.033Z,9.10
2022-10-03T02:18:15.038Z,8.99
2022-10-03T02:19:15.054Z,8.96
2022-10-03T02:20:15.061Z,8.99
2022-10-03T02:21:15.082Z,8.95
2022-10-03T02:22:15.118Z,9.01
2022-10-03T02:23:15.096Z,9.13
2022-10-03T02:24:15.107Z,9.04
2022-10-03T02:25:15.119Z,9.04
2022-10-03T02:26:15.131Z,9.01
2022-10-03T02:27:15.142Z,9.05
2022-10-03T02:28:15.206Z,9.02
2022-10-03T02:29:15.166Z,9.10
2022-10-03T02:30:15.179Z,9.10
2022-10-03T02:31:15.256Z,9.10
2022-10-03T02:32:15.197Z,9.10
2022-10-03T02:33:15.212Z,9.04
2022-10-03T02:34:15.222Z,9.13
2022-10-03T02:35:15.233Z,9.11
2022-10-03T02:36:15.246Z,9.13
2022-10-03T02:37:15.261Z,9.05
2022-10-03T02:38:15.297Z,9.14
2022-10-03T02:39:15.287Z,9.15
2022-10-03T02:40:15.286Z,9.17
2022-10-03T02:41:15.302Z,9.21
2022-10-03T02:42:15.413Z,9.21
2022-10-03T02:43:15.323Z,9.21
2022-10-03T02:44:15.335Z,9.13
2022-10-03T02:45:15.349Z,9.15
2022-10-03T02:46:15.411Z,9.15
2022-10-03T02:47:15.377Z,9.11
2022-10-03T02:48:32.378Z,9.17
2022-10-03T02:49:15.405Z,9.18
2022-10-03T02:50:15.404Z,9.15
2022-10-03T02:51:15.416Z,9.13
2022-10-03T02:52:15.427Z,9.13
2022-10-03T02:53:15.443Z,9.17
2022-10-03T02:54:15.472Z,9.11
2022-10-03T02:55:15.464Z,9.15
2022-10-03T02:56:15.491Z,9.11
2022-10-03T02:57:15.484Z,9.15
2022-10-03T02:58:15.495Z,9.15
2022-10-03T02:59:15.510Z,9.10
2022-10-03T03:00:15.523Z,9.01
2022-10-03T03:01:15.573Z,9.04
2022-10-03T03:02:15.602Z,9.05
2022-10-03T03:03:15.555Z,9.05
2022-10-03T03:04:15.568Z,8.92
2022-10-03T03:05:15.577Z,8.99
2022-10-03T03:06:15.587Z,8.96
2022-10-03T03:07:15.600Z,8.89
2022-10-03T03:08:15.614Z,8.96
2022-10-03T03:09:15.623Z,8.80
2022-10-03T03:10:15.664Z,8.84
2022-10-03T03:11:15.646Z,8.84
2022-10-03T03:12:15.661Z,8.80
2022-10-03T03:13:15.670Z,8.76
2022-10-03T03:14:15.681Z,8.80
2022-10-03T03:15:15.690Z,8.76
2022-10-03T03:16:15.813Z,8.77
2022-10-03T03:17:15.726Z,8.81
2022-10-03T03:18:15.722Z,8.68
2022-10-03T03:19:15.737Z,8.70
2022-10-03T03:20:15.753Z,8.68
2022-10-03T03:21:15.757Z,8.74
2022-10-03T03:22:15.772Z,8.77
2022-10-03T03:23:15.781Z,8.73
2022-10-03T03:24:15.793Z,8.77
2022-10-03T03:25:15.805Z,8.70
2022-10-03T03:26:15.837Z,8.65
2022-10-03T03:27:15.826Z,8.71
2022-10-03T03:28:15.891Z,8.59
2022-10-03T03:29:15.858Z,8.68
2022-10-03T03:30:15.861Z,8.62
2022-10-03T03:31:15.908Z,8.68
2022-10-03T03:32:15.883Z,8.65
2022-10-03T03:33:15.900Z,8.65
2022-10-03T03:34:15.907Z,8.68
2022-10-03T03:35:15.924Z,8.66
2022-10-03T03:36:15.925Z,8.74
2022-10-03T03:37:15.940Z,8.66
2022-10-03T03:38:15.953Z,8.70
2022-10-03T03:39:15.957Z,8.74
2022-10-03T03:40:15.983Z,8.65
2022-10-03T03:41:15.981Z,8.73
2022-10-03T03:42:16.023Z,8.65
2022-10-03T03:43:16.003Z,8.71
2022-10-03T03:44:16.018Z,8.73
2022-10-03T03:45:16.033Z,8.70
2022-10-03T03:46:16.039Z,8.65
2022-10-03T03:47:16.050Z,8.71
2022-10-03T03:48:16.061Z,8.70
2022-10-03T03:49:16.077Z,8.70
2022-10-03T03:50:16.086Z,8.74
2022-10-03T03:51:16.101Z,8.70
2022-10-03T03:52:16.109Z,8.74
2022-10-03T03:53:16.116Z,8.68
2022-10-03T03:54:16.129Z,8.76
2022-10-03T03:55:16.143Z,8.70
2022-10-03T03:56:16.156Z,8.71
2022-10-03T03:57:16.167Z,8.73
2022-10-03T03:58:16.202Z,8.71
2022-10-03T03:59:16.184Z,8.71
2022-10-03T04:00:16.219Z,8.68
2022-10-03T04:01:16.288Z,8.73
2022-10-03T04:02:16.314Z,8.70
2022-10-03T04:03:16.230Z,8.73
2022-10-03T04:04:16.247Z,8.70
2022-10-03T04:05:16.251Z,8.66
2022-10-03T04:06:16.264Z,8.74
2022-10-03T04:07:20.849Z,8.71
2022-10-03T04:08:16.285Z,8.73
2022-10-03T04:09:16.308Z,8.73
2022-10-03T04:10:16.311Z,8.74
2022-10-03T04:11:16.319Z,8.74
2022-10-03T04:12:16.332Z,8.74
2022-10-03T04:13:16.338Z,8.66
2022-10-03T04:14:16.380Z,8.68
2022-10-03T04:15:16.362Z,8.66
2022-10-03T04:16:16.439Z,8.68
2022-10-03T04:17:16.386Z,8.65
2022-10-03T04:18:16.395Z,8.63
2022-10-03T04:19:16.409Z,8.66
2022-10-03T04:20:16.419Z,8.70
2022-10-03T04:21:19.064Z,8.66
2022-10-03T04:22:16.442Z,8.66
2022-10-03T04:23:16.454Z,8.63
2022-10-03T04:24:16.467Z,8.70
2022-10-03T04:25:16.475Z,8.68
2022-10-03T04:26:16.486Z,8.61
2022-10-03T04:27:16.499Z,8.62
2022-10-03T04:28:16.580Z,8.62
2022-10-03T04:29:16.524Z,8.74
2022-10-03T04:30:16.655Z,8.62
2022-10-03T04:31:16.669Z,8.56
2022-10-03T04:32:16.630Z,8.68
2022-10-03T04:33:16.566Z,8.63
2022-10-03T04:34:16.578Z,8.61
2022-10-03T04:35:16.590Z,8.61
2022-10-03T04:36:16.601Z,8.70
2022-10-03T04:37:16.609Z,8.63
2022-10-03T04:38:16.621Z,8.62
2022-10-03T04:39:16.634Z,8.62
2022-10-03T04:40:16.645Z,8.62
2022-10-03T04:41:16.653Z,8.58
2022-10-03T04:42:16.666Z,8.55
2022-10-03T04:43:16.677Z,8.52
2022-10-03T04:44:16.693Z,8.56
2022-10-03T04:45:16.700Z,8.58
2022-10-03T04:46:16.938Z,8.58
2022-10-03T04:47:16.721Z,8.53
2022-10-03T04:48:16.735Z,8.45
2022-10-03T04:49:16.750Z,8.43
2022-10-03T04:50:16.757Z,8.44
2022-10-03T04:51:16.777Z,8.41
2022-10-03T04:52:16.780Z,8.43
2022-10-03T04:53:16.793Z,8.48
2022-10-03T04:54:16.800Z,8.44
2022-10-03T04:55:16.810Z,8.44
2022-10-03T04:56:16.826Z,8.47
2022-10-03T04:57:16.832Z,8.44
2022-10-03T04:58:16.844Z,8.38
2022-10-03T04:59:16.859Z,8.40
2022-10-03T05:00:16.863Z,8.37
2022-10-03T05:01:16.943Z,8.38
2022-10-03T05:02:16.945Z,8.37
2022-10-03T05:03:16.901Z,8.33
2022-10-03T05:04:16.913Z,8.33
2022-10-03T05:05:16.928Z,8.29
2022-10-03T05:06:16.934Z,8.23
2022-10-03T05:07:16.946Z,8.30
2022-10-03T05:08:16.958Z,8.23
2022-10-03T05:09:16.971Z,8.34
2022-10-03T05:10:16.972Z,8.29
2022-10-03T05:11:16.989Z,8.29
2022-10-03T05:12:17.005Z,8.28
2022-10-03T05:13:17.010Z,8.30
2022-10-03T05:14:17.021Z,8.25
2022-10-03T05:15:17.032Z,8.36
2022-10-03T05:16:17.142Z,8.26
2022-10-03T05:17:17.052Z,8.33
2022-10-03T05:18:17.123Z,8.41
2022-10-03T05:19:17.074Z,8.30
2022-10-03T05:20:17.088Z,8.30
2022-10-03T05:21:17.096Z,8.40
2022-10-03T05:22:17.112Z,8.41
2022-10-03T05:23:17.117Z,8.40
2022-10-03T05:24:17.126Z,8.38
2022-10-03T05:25:17.149Z,8.36
2022-10-03T05:26:43.465Z,8.38
2022-10-03T05:27:17.162Z,8.41
2022-10-03T05:28:17.221Z,8.47
2022-10-03T05:29:17.183Z,8.41
2022-10-03T05:30:17.194Z,8.43
2022-10-03T05:31:17.269Z,8.44
2022-10-03T05:32:17.220Z,8.52
2022-10-03T05:33:17.225Z,8.48
2022-10-03T05:34:17.262Z,8.47
2022-10-03T05:35:17.254Z,8.55
2022-10-03T05:36:17.265Z,8.52
2022-10-03T05:37:17.274Z,8.48
2022-10-03T05:38:17.284Z,8.55
2022-10-03T05:39:17.298Z,8.52
2022-10-03T05:40:17.307Z,8.55
2022-10-03T05:41:17.326Z,8.56
2022-10-03T05:42:23.149Z,8.52
2022-10-03T05:43:17.337Z,8.58
2022-10-03T05:44:17.349Z,8.56
2022-10-03T05:45:17.358Z,8.55
2022-10-03T05:46:17.477Z,8.59
2022-10-03T05:47:17.380Z,8.62
2022-10-03T05:48:17.395Z,8.61
2022-10-03T05:49:17.401Z,8.50
2022-10-03T05:50:18.391Z,8.62
2022-10-03T05:51:17.450Z,8.65
2022-10-03T05:52:17.436Z,8.62
2022-10-03T05:53:17.446Z,8.62
2022-10-03T05:54:17.457Z,8.59
2022-10-03T05:55:17.466Z,8.62
2022-10-03T05:56:17.478Z,8.56
2022-10-03T05:57:17.490Z,8.53
2022-10-03T05:58:17.504Z,8.50
2022-10-03T05:59:17.518Z,8.44
2022-10-03T06:00:17.519Z,8.44
2022-10-03T06:01:17.532Z,8.40
2022-10-03T06:02:17.676Z,8.43
2022-10-03T06:03:17.636Z,8.38
2022-10-03T06:04:17.577Z,8.38
2022-10-03T06:05:17.576Z,8.40
2022-10-03T06:06:17.615Z,8.40
2022-10-03T06:07:17.595Z,8.38
2022-10-03T06:08:17.609Z,8.38
2022-10-03T06:09:17.619Z,8.41
2022-10-03T06:10:17.629Z,8.40
2022-10-03T06:11:17.638Z,8.37
2022-10-03T06:12:17.648Z,8.38
2022-10-03T06:13:17.659Z,8.33
2022-10-03T06:14:17.671Z,8.30
2022-10-03T06:15:17.682Z,8.26
2022-10-03T06:16:17.746Z,8.25
2022-10-03T06:17:17.704Z,8.36
2022-10-03T06:18:17.720Z,8.29
2022-10-03T06:19:17.731Z,8.36
2022-10-03T06:20:17.733Z,8.37
2022-10-03T06:21:17.745Z,8.34
2022-10-03T06:22:17.785Z,8.30
2022-10-03T06:23:17.789Z,8.36
2022-10-03T06:24:17.780Z,8.36
2022-10-03T06:25:17.785Z,8.28
2022-10-03T06:26:17.800Z,8.33
2022-10-03T06:27:17.862Z,8.40
2022-10-03T06:28:17.883Z,8.43
2022-10-03T06:29:17.837Z,8.40
2022-10-03T06:30:17.844Z,8.43
2022-10-03T06:31:17.884Z,8.40
2022-10-03T06:32:17.865Z,8.40
2022-10-03T06:33:17.882Z,8.38
2022-10-03T06:34:17.883Z,8.38
2022-10-03T06:35:17.896Z,8.44
2022-10-03T06:36:17.907Z,8.41
2022-10-03T06:37:17.942Z,8.38
2022-10-03T06:38:17.950Z,8.43
2022-10-03T06:39:17.935Z,8.44
2022-10-03T06:40:17.949Z,8.36
2022-10-03T06:41:17.957Z,8.41
2022-10-03T06:42:17.969Z,8.38
2022-10-03T06:43:18.041Z,8.40
2022-10-03T06:44:17.993Z,8.43
2022-10-03T06:45:18.002Z,8.36
2022-10-03T06:46:18.033Z,8.38
2022-10-03T06:47:18.023Z,8.38
2022-10-03T06:48:18.034Z,8.36
2022-10-03T06:49:18.047Z,8.45
2022-10-03T06:50:18.057Z,8.45
2022-10-03T06:51:18.069Z,8.47
2022-10-03T06:52:18.076Z,8.43
2022-10-03T06:53:18.093Z,8.41
2022-10-03T06:54:18.179Z,8.44
2022-10-03T06:55:18.211Z,8.48
2022-10-03T06:56:18.126Z,8.48
2022-10-03T06:57:18.134Z,8.47
2022-10-03T06:58:18.143Z,8.43
2022-10-03T06:59:18.153Z,8.50
2022-10-03T07:00:18.165Z,8.50
2022-10-03T07:01:18.223Z,8.48
2022-10-03T07:02:18.271Z,8.43
2022-10-03T07:03:18.198Z,8.41
2022-10-03T07:04:18.210Z,8.47
2022-10-03T07:05:18.220Z,8.44
2022-10-03T07:06:18.236Z,8.43
2022-10-03T07:07:18.239Z,8.44
2022-10-03T07:08:18.250Z,8.40
2022-10-03T07:09:18.263Z,8.41
2022-10-03T07:10:18.296Z,8.50
2022-10-03T07:11:18.288Z,8.59
2022-10-03T07:12:18.295Z,8.65
2022-10-03T07:13:18.407Z,8.71
2022-10-03T07:14:18.322Z,8.87
2022-10-03T07:15:18.331Z,8.96
2022-10-03T07:16:26.875Z,9.31
2022-10-03T07:17:18.408Z,9.32
2022-10-03T07:18:18.366Z,9.48
2022-10-03T07:19:18.378Z,9.60
2022-10-03T07:20:18.384Z,9.58
2022-10-03T07:21:18.396Z,9.61
2022-10-03T07:22:18.408Z,9.58
2022-10-03T07:23:18.417Z,9.65
2022-10-03T07:24:18.431Z,9.74
2022-10-03T07:25:18.468Z,9.81
2022-10-03T07:26:18.482Z,9.79
2022-10-03T07:27:18.464Z,9.86
2022-10-03T07:28:18.520Z,10.07
2022-10-03T07:29:18.482Z,10.09
2022-10-03T07:30:18.496Z,10.02
2022-10-03T07:31:18.599Z,9.96
2022-10-03T07:32:18.523Z,9.97
2022-10-03T07:33:18.527Z,9.94
2022-10-03T07:34:18.541Z,9.91
2022-10-03T07:35:18.551Z,9.96
2022-10-03T07:36:18.563Z,9.97
2022-10-03T07:37:18.570Z,9.97
2022-10-03T07:38:18.585Z,10.07
2022-10-03T07:39:18.603Z,10.17
2022-10-03T07:40:18.610Z,10.17
2022-10-03T07:41:18.615Z,10.15
2022-10-03T07:42:18.652Z,10.02
2022-10-03T07:43:18.639Z,10.02
2022-10-03T07:44:18.653Z,10.07
2022-10-03T07:45:18.666Z,9.96
2022-10-03T07:46:18.739Z,9.86
2022-10-03T07:47:18.685Z,10.01
2022-10-03T07:48:18.705Z,10.14
2022-10-03T07:49:18.888Z,10.20
2022-10-03T07:50:18.719Z,10.27
2022-10-03T07:51:18.834Z,10.41
2022-10-03T07:52:18.745Z,10.40
2022-10-03T07:53:18.758Z,10.60
2022-10-03T07:54:18.762Z,10.78
2022-10-03T07:55:18.772Z,10.52
2022-10-03T07:56:18.786Z,10.47
2022-10-03T07:57:18.796Z,10.53
2022-10-03T07:58:18.828Z,10.51
2022-10-03T07:59:18.825Z,10.76
2022-10-03T08:00:18.831Z,10.70
2022-10-03T08:01:18.843Z,10.68
2022-10-03T08:02:18.894Z,10.82
2022-10-03T08:03:18.950Z,10.88
2022-10-03T08:04:18.875Z,11.00
2022-10-03T08:05:18.892Z,11.10
2022-10-03T08:06:18.905Z,11.11
2022-10-03T08:07:18.912Z,11.36
2022-10-03T08:08:18.925Z,11.36
2022-10-03T08:09:18.934Z,11.40
2022-10-03T08:10:18.950Z,11.40
2022-10-03T08:11:18.956Z,11.40
2022-10-03T08:12:18.966Z,11.24
2022-10-03T08:13:18.979Z,11.27
2022-10-03T08:14:19.033Z,11.36
2022-10-03T08:15:19.007Z,11.49
2022-10-03T08:16:19.057Z,11.78
2022-10-03T08:17:19.024Z,11.72
2022-10-03T08:18:19.137Z,11.65
2022-10-03T08:19:19.048Z,11.61
2022-10-03T08:20:19.060Z,11.76
2022-10-03T08:21:19.073Z,11.65
2022-10-03T08:22:19.085Z,11.49
2022-10-03T08:23:19.108Z,11.55
2022-10-03T08:24:19.110Z,11.42
2022-10-03T08:25:19.225Z,11.35
2022-10-03T08:26:19.128Z,11.37
2022-10-03T08:27:19.149Z,11.18
2022-10-03T08:28:19.213Z,11.14
2022-10-03T08:29:19.166Z,11.17
2022-10-03T08:30:19.208Z,11.24
2022-10-03T08:31:19.263Z,11.43
2022-10-03T08:32:19.203Z,11.83
2022-10-03T08:33:19.215Z,11.76
2022-10-03T08:34:19.231Z,11.72
2022-10-03T08:35:19.252Z,11.88
2022-10-03T08:36:19.257Z,11.78
2022-10-03T08:37:19.265Z,11.85
2022-10-03T08:38:19.280Z,11.65
2022-10-03T08:39:19.293Z,11.62
2022-10-03T08:40:19.300Z,11.52
2022-10-03T08:41:19.315Z,11.54
2022-10-03T08:42:19.330Z,11.47
2022-10-03T08:43:19.337Z,11.58
2022-10-03T08:44:19.354Z,11.69
2022-10-03T08:45:19.361Z,11.91
2022-10-03T08:46:19.475Z,11.80
2022-10-03T08:47:19.499Z,11.76
2022-10-03T08:48:19.404Z,11.82
2022-10-03T08:49:19.412Z,11.73
2022-10-03T08:50:19.487Z,11.91
2022-10-03T08:51:19.433Z,11.80
2022-10-03T08:52:19.459Z,11.60
2022-10-03T08:53:19.465Z,11.47
2022-10-03T08:54:19.483Z,11.65
2022-10-03T08:55:19.486Z,11.52
2022-10-03T08:56:19.499Z,11.49
2022-10-03T08:57:19.513Z,11.22
2022-10-03T08:58:19.522Z,11.52
2022-10-03T08:59:19.539Z,11.73
2022-10-03T09:00:19.703Z,11.85
2022-10-03T09:01:19.596Z,11.96
2022-10-03T09:02:19.700Z,12.07
2022-10-03T09:03:33.985Z,12.04
2022-10-03T09:04:19.597Z,12.32
2022-10-03T09:05:19.610Z,12.24
2022-10-03T09:06:19.622Z,12.49
2022-10-03T09:07:20.341Z,12.62
2022-10-03T09:08:19.647Z,12.47
2022-10-03T09:09:19.661Z,12.29
2022-10-03T09:10:19.672Z,11.95
2022-10-03T09:11:19.685Z,11.94
2022-10-03T09:12:19.702Z,11.94
2022-10-03T09:13:19.710Z,12.29
2022-10-03T09:14:19.773Z,12.38
2022-10-03T09:15:19.734Z,12.54
2022-10-03T09:16:19.804Z,12.85
2022-10-03T09:17:19.759Z,12.75
2022-10-03T09:18:19.799Z,12.68
2022-10-03T09:19:19.888Z,12.24
2022-10-03T09:20:19.801Z,12.53
2022-10-03T09:21:19.816Z,12.89
2022-10-03T09:22:19.832Z,13.10
2022-10-03T09:23:19.845Z,12.64
2022-10-03T09:24:19.850Z,12.28
2022-10-03T09:25:19.886Z,11.96
2022-10-03T09:26:19.883Z,12.37
2022-10-03T09:27:19.896Z,12.46
2022-10-03T09:28:24.486Z,12.75
2022-10-03T09:29:19.922Z,13.05
2022-10-03T09:30:19.949Z,13.19
2022-10-03T09:31:19.992Z,13.03
2022-10-03T09:32:19.966Z,12.86
2022-10-03T09:33:19.973Z,13.08
2022-10-03T09:34:20.009Z,13.39
2022-10-03T09:35:19.995Z,13.52
2022-10-03T09:36:20.005Z,13.25
2022-10-03T09:37:20.027Z,12.68
2022-10-03T09:38:20.032Z,12.85
2022-10-03T09:39:20.057Z,13.20
2022-10-03T09:40:20.062Z,13.36
2022-10-03T09:41:20.073Z,13.49
2022-10-03T09:42:20.093Z,13.70
2022-10-03T09:43:20.111Z,13.85
2022-10-03T09:44:20.119Z,14.03
2022-10-03T09:45:20.135Z,14.20
2022-10-03T09:46:20.169Z,14.20
2022-10-03T09:47:20.157Z,14.02
2022-10-03T09:48:20.173Z,14.45
2022-10-03T09:49:20.186Z,14.51
2022-10-03T09:50:20.219Z,14.17
2022-10-03T09:51:20.212Z,13.62
2022-10-03T09:52:20.237Z,13.71
2022-10-03T09:53:20.242Z,13.91
2022-10-03T09:54:20.258Z,13.89
2022-10-03T09:55:20.268Z,14.00
2022-10-03T09:56:20.282Z,14.25
2022-10-03T09:57:22.911Z,14.60
2022-10-03T09:58:20.314Z,14.60
2022-10-03T09:59:20.325Z,14.62
2022-10-03T10:00:20.338Z,14.27
2022-10-03T10:01:20.418Z,14.54
2022-10-03T10:02:20.364Z,14.75
2022-10-03T10:03:20.382Z,14.42
2022-10-03T10:04:37.530Z,14.62
2022-10-03T10:05:20.410Z,14.46
2022-10-03T10:06:24.561Z,14.52
2022-10-03T10:07:20.442Z,14.06
2022-10-03T10:08:20.456Z,14.54
2022-10-03T10:09:20.471Z,14.72
2022-10-03T10:10:20.481Z,14.92
2022-10-03T10:11:20.497Z,14.77
2022-10-03T10:12:20.513Z,14.60
2022-10-03T10:13:20.524Z,14.68
2022-10-03T10:14:20.538Z,14.89
2022-10-03T10:15:20.556Z,14.65
2022-10-03T10:16:20.643Z,14.52
2022-10-03T10:17:20.584Z,15.01
2022-10-03T10:18:20.605Z,15.14
2022-10-03T10:19:20.620Z,15.23
2022-10-03T10:20:20.634Z,15.07
2022-10-03T10:21:20.645Z,14.98
2022-10-03T10:22:20.687Z,14.98
2022-10-03T10:23:20.674Z,15.02
2022-10-03T10:24:20.688Z,14.65
2022-10-03T10:25:20.704Z,14.42
2022-10-03T10:26:20.716Z,14.35
2022-10-03T10:27:20.732Z,14.80
2022-10-03T10:28:20.836Z,15.29
2022-10-03T10:29:20.762Z,15.34
2022-10-03T10:30:20.783Z,15.32
2022-10-03T10:31:20.861Z,15.46
2022-10-03T10:32:21.869Z,15.47
2022-10-03T10:33:20.822Z,15.86
2022-10-03T10:34:20.843Z,16.15
2022-10-03T10:35:20.856Z,15.86
2022-10-03T10:36:20.874Z,15.69
2022-10-03T10:37:20.899Z,15.75
2022-10-03T10:38:20.927Z,15.49
2022-10-03T10:39:20.921Z,14.95
2022-10-03T10:40:20.932Z,14.45
2022-10-03T10:41:20.951Z,14.57
2022-10-03T10:42:20.985Z,15.01
2022-10-03T10:43:20.982Z,15.06
2022-10-03T10:44:20.998Z,15.36
2022-10-03T10:45:21.010Z,15.53
2022-10-03T10:46:21.121Z,15.89
2022-10-03T10:47:21.044Z,15.83
2022-10-03T10:48:21.059Z,15.34
2022-10-03T10:49:21.073Z,15.64
2022-10-03T10:50:21.103Z,15.49
2022-10-03T10:51:21.101Z,15.80
2022-10-03T10:52:21.122Z,15.56
2022-10-03T10:53:21.142Z,15.54
2022-10-03T10:54:21.176Z,15.50
2022-10-03T10:55:21.165Z,15.74
2022-10-03T10:56:21.190Z,15.36
2022-10-03T10:57:21.200Z,15.23
2022-10-03T10:58:21.218Z,15.23
2022-10-03T10:59:21.238Z,14.70
2022-10-03T11:00:21.256Z,14.72
2022-10-03T11:01:21.263Z,14.95
2022-10-03T11:02:21.278Z,14.99
2022-10-03T11:03:21.312Z,15.16
2022-10-03T11:04:21.379Z,15.90
2022-10-03T11:05:21.326Z,15.41
2022-10-03T11:06:21.393Z,15.43
2022-10-03T11:07:21.358Z,15.19
2022-10-03T11:08:21.369Z,15.25
2022-10-03T11:09:21.386Z,16.01
2022-10-03T11:10:21.440Z,16.78
2022-10-03T11:11:21.423Z,17.04
2022-10-03T11:12:21.434Z,17.21
2022-10-03T11:13:21.453Z,16.56
2022-10-03T11:14:21.464Z,16.73
2022-10-03T11:15:21.480Z,16.56
2022-10-03T11:16:21.564Z,16.20
2022-10-03T11:17:21.514Z,16.01
2022-10-03T11:18:21.532Z,15.71
2022-10-03T11:19:21.552Z,16.01
2022-10-03T11:20:21.562Z,15.76
2022-10-03T11:21:21.581Z,15.13
2022-10-03T11:22:21.595Z,15.51
2022-10-03T11:23:21.610Z,15.82
2022-10-03T11:24:21.635Z,16.05
2022-10-03T11:25:21.644Z,16.45
2022-10-03T11:26:21.689Z,16.07
2022-10-03T11:27:21.688Z,15.93
2022-10-03T11:28:26.352Z,15.97
2022-10-03T11:29:21.708Z,16.20
2022-10-03T11:30:21.725Z,16.35
2022-10-03T11:31:21.796Z,16.39
2022-10-03T11:32:21.756Z,16.11
2022-10-03T11:33:21.777Z,16.60
2022-10-03T11:34:21.789Z,16.61
2022-10-03T11:35:21.812Z,16.46
2022-10-03T11:36:21.830Z,16.33
2022-10-03T11:37:21.838Z,16.24
2022-10-03T11:38:21.858Z,16.02
2022-10-03T11:39:21.873Z,16.24
2022-10-03T11:40:21.888Z,15.51
2022-10-03T11:41:21.905Z,15.71
2022-10-03T11:42:21.953Z,15.59
2022-10-03T11:43:21.944Z,15.84
2022-10-03T11:44:21.955Z,16.21
2022-10-03T11:45:21.974Z,16.34
2022-10-03T11:46:22.061Z,15.84
2022-10-03T11:47:22.002Z,16.05
2022-10-03T11:48:22.022Z,16.48
2022-10-03T11:49:22.049Z,16.70
2022-10-03T11:50:22.055Z,16.76
2022-10-03T11:51:22.072Z,16.45
2022-10-03T11:52:22.134Z,16.75
2022-10-03T11:53:22.105Z,16.68
2022-10-03T11:54:31.124Z,16.71
2022-10-03T11:55:22.136Z,16.41
2022-10-03T11:56:22.153Z,15.71
2022-10-03T11:57:22.172Z,16.11
2022-10-03T11:58:22.211Z,16.61
2022-10-03T11:59:26.086Z,16.67
2022-10-03T12:00:22.220Z,16.27
2022-10-03T12:01:22.235Z,16.73
2022-10-03T12:02:22.335Z,16.83
2022-10-03T12:03:22.353Z,16.58
2022-10-03T12:04:22.288Z,16.43
2022-10-03T12:05:22.307Z,16.15
2022-10-03T12:06:22.326Z,15.38
2022-10-03T12:07:22.340Z,16.08
2022-10-03T12:08:22.354Z,16.38
2022-10-03T12:09:22.368Z,16.35
2022-10-03T12:10:22.386Z,15.93
2022-10-03T12:11:22.422Z,16.14
2022-10-03T12:12:22.423Z,15.75
2022-10-03T12:13:22.443Z,16.23
2022-10-03T12:14:22.490Z,16.09
2022-10-03T12:15:22.484Z,16.42
2022-10-03T12:16:22.537Z,16.58
2022-10-03T12:17:22.506Z,16.94
2022-10-03T12:18:22.519Z,17.01
2022-10-03T12:19:22.540Z,16.97
2022-10-03T12:20:22.553Z,17.22
2022-10-03T12:21:22.571Z,17.51
2022-10-03T12:22:22.589Z,17.81
2022-10-03T12:23:22.605Z,17.18
2022-10-03T12:24:22.624Z,17.08
2022-10-03T12:25:22.640Z,17.58
2022-10-03T12:26:22.653Z,17.90
2022-10-03T12:27:22.672Z,17.48
2022-10-03T12:28:22.726Z,17.19
2022-10-03T12:29:22.704Z,17.08
2022-10-03T12:30:22.747Z,17.51
2022-10-03T12:31:22.811Z,17.44
2022-10-03T12:32:22.765Z,17.52
2022-10-03T12:33:22.773Z,17.68
2022-10-03T12:34:22.792Z,17.71
2022-10-03T12:35:22.808Z,17.75
2022-10-03T12:36:22.834Z,18.18
2022-10-03T12:37:22.844Z,17.97
2022-10-03T12:38:22.863Z,17.44
2022-10-03T12:39:22.879Z,17.22
2022-10-03T12:40:22.894Z,17.18
2022-10-03T12:41:22.911Z,17.78
2022-10-03T12:42:22.954Z,17.71
2022-10-03T12:43:22.948Z,17.51
2022-10-03T12:44:22.965Z,17.46
2022-10-03T12:45:22.986Z,17.89
2022-10-03T12:46:23.083Z,18.10
2022-10-03T12:47:37.710Z,18.55
2022-10-03T12:48:23.038Z,18.69
2022-10-03T12:49:23.053Z,18.84
2022-10-03T12:50:23.075Z,19.25
2022-10-03T12:51:23.093Z,19.19
2022-10-03T12:52:23.106Z,18.82
2022-10-03T12:53:23.123Z,18.18
2022-10-03T12:54:26.493Z,17.00
2022-10-03T12:55:23.164Z,17.14
2022-10-03T12:56:23.179Z,17.55
2022-10-03T12:57:23.206Z,17.51
2022-10-03T12:58:23.219Z,17.55
2022-10-03T12:59:23.398Z,17.99
2022-10-03T13:00:23.252Z,17.22
2022-10-03T13:01:23.387Z,17.01
2022-10-03T13:02:23.478Z,17.56
2022-10-03T13:03:23.313Z,17.59
2022-10-03T13:04:23.327Z,17.34
2022-10-03T13:05:23.364Z,17.58
2022-10-03T13:06:38.773Z,17.58
2022-10-03T13:07:23.377Z,17.79